sensor_id;sensor_type;location;lat;lon;timestamp;temperature;humidity
10070;DHT22;5074;53.720;10.014;2022-12-11T00:00:52;-1.70;99.90
10070;DHT22;5074;53.720;10.014;2022-12-11T00:03:20;-1.70;99.90
10070;DHT22;5074;53.720;10.014;2022-12-11T00:05:48;-1.70;99.90
10070;DHT22;5074;53.720;10.014;2022-12-11T00:08:16;-1.70;99.90
10070;DHT22;5074;53.720;10.014;2022-12-11T00:10:46;-1.70;99.90
10070;DHT22;5074;53.720;10.014;2022-12-11T00:13:15;-1.70;99.90
10070;DHT22;5074;53.720;10.014;2022-12-11T00:15:44;-1.70;99.90
10070;DHT22;5074;53.720;10.014;2022-12-11T00:18:12;-1.70;99.90
10070;DHT22;5074;53.720;10.014;2022-12-11T00:20:41;-1.70;99.90
10070;DHT22;5074;53.720;10.014;2022-12-11T00:23:09;-1.80;99.90
10070;DHT22;5074;53.720;10.014;2022-12-11T00:25:39;-1.80;99.90
10070;DHT22;5074;53.720;10.014;2022-12-11T00:28:09;-1.90;99.90
10070;DHT22;5074;53.720;10.014;2022-12-11T00:30:38;-1.90;99.90
10070;DHT22;5074;53.720;10.014;2022-12-11T00:33:09;-1.90;99.90
10070;DHT22;5074;53.720;10.014;2022-12-11T00:35:37;-1.90;99.90
10070;DHT22;5074;53.720;10.014;2022-12-11T00:38:06;-1.90;99.90
10070;DHT22;5074;53.720;10.014;2022-12-11T00:40:34;-2.00;99.90
10070;DHT22;5074;53.720;10.014;2022-12-11T00:43:02;-1.90;99.90
10070;DHT22;5074;53.720;10.014;2022-12-11T00:45:33;-1.90;99.90
10070;DHT22;5074;53.720;10.014;2022-12-11T00:48:02;-1.90;99.90
10070;DHT22;5074;53.720;10.014;2022-12-11T00:50:32;-1.80;99.90
10070;DHT22;5074;53.720;10.014;2022-12-11T00:53:00;-1.80;99.90
10070;DHT22;5074;53.720;10.014;2022-12-11T00:55:29;-1.80;99.90
10070;DHT22;5074;53.720;10.014;2022-12-11T00:57:57;-1.80;99.90
10070;DHT22;5074;53.720;10.014;2022-12-11T01:00:25;-1.90;99.90
10070;DHT22;5074;53.720;10.014;2022-12-11T01:02:53;-1.90;99.90
10070;DHT22;5074;53.720;10.014;2022-12-11T01:05:21;-1.90;99.90
10070;DHT22;5074;53.720;10.014;2022-12-11T01:07:50;-1.90;99.90
10070;DHT22;5074;53.720;10.014;2022-12-11T01:10:19;-1.90;99.90
10070;DHT22;5074;53.720;10.014;2022-12-11T01:12:54;-1.80;99.90
10070;DHT22;5074;53.720;10.014;2022-12-11T01:15:24;-1.80;99.90
10070;DHT22;5074;53.720;10.014;2022-12-11T01:17:54;-1.80;99.90
10070;DHT22;5074;53.720;10.014;2022-12-11T01:20:23;-1.80;99.90
10070;DHT22;5074;53.720;10.014;2022-12-11T01:22:54;-1.80;99.90
10070;DHT22;5074;53.720;10.014;2022-12-11T01:25:25;-1.90;99.90
10070;DHT22;5074;53.720;10.014;2022-12-11T01:27:54;-1.90;99.90
10070;DHT22;5074;53.720;10.014;2022-12-11T01:30:23;-1.90;99.90
10070;DHT22;5074;53.720;10.014;2022-12-11T01:32:52;-1.80;99.90
10070;DHT22;5074;53.720;10.014;2022-12-11T01:35:20;-1.80;99.90
10070;DHT22;5074;53.720;10.014;2022-12-11T01:37:48;-1.90;99.90
10070;DHT22;5074;53.720;10.014;2022-12-11T01:40:18;-1.90;99.90
10070;DHT22;5074;53.720;10.014;2022-12-11T01:42:47;-1.90;99.90
10070;DHT22;5074;53.720;10.014;2022-12-11T01:45:21;-1.90;99.90
10070;DHT22;5074;53.720;10.014;2022-12-11T01:48:03;-1.80;99.90
10070;DHT22;5074;53.720;10.014;2022-12-11T01:50:35;-1.80;99.90
10070;DHT22;5074;53.720;10.014;2022-12-11T01:53:08;-1.90;99.90
10070;DHT22;5074;53.720;10.014;2022-12-11T01:55:40;-1.80;99.90
10070;DHT22;5074;53.720;10.014;2022-12-11T01:58:08;-1.80;99.90
10070;DHT22;5074;53.720;10.014;2022-12-11T02:00:38;-1.80;99.90
10070;DHT22;5074;53.720;10.014;2022-12-11T02:03:06;-1.80;99.90
10070;DHT22;5074;53.720;10.014;2022-12-11T02:05:35;-1.90;99.90
10070;DHT22;5074;53.720;10.014;2022-12-11T02:08:03;-1.80;99.90
10070;DHT22;5074;53.720;10.014;2022-12-11T02:10:47;-1.80;99.90
10070;DHT22;5074;53.720;10.014;2022-12-11T02:13:20;-1.80;99.90
10070;DHT22;5074;53.720;10.014;2022-12-11T02:15:55;-1.80;99.90
10070;DHT22;5074;53.720;10.014;2022-12-11T02:18:30;-1.80;99.90
10070;DHT22;5074;53.720;10.014;2022-12-11T02:21:05;-1.80;99.90
10070;DHT22;5074;53.720;10.014;2022-12-11T02:26:57;-1.80;99.90
10070;DHT22;5074;53.720;10.014;2022-12-11T02:29:41;-1.80;99.90
10070;DHT22;5074;53.720;10.014;2022-12-11T02:32:18;-1.80;99.90
10070;DHT22;5074;53.720;10.014;2022-12-11T02:34:51;-1.90;99.90
10070;DHT22;5074;53.720;10.014;2022-12-11T02:37:25;-1.90;99.90
10070;DHT22;5074;53.720;10.014;2022-12-11T02:39:56;-1.90;99.90
10070;DHT22;5074;53.720;10.014;2022-12-11T02:42:26;-1.90;99.90
10070;DHT22;5074;53.720;10.014;2022-12-11T02:44:59;-1.90;99.90
10070;DHT22;5074;53.720;10.014;2022-12-11T02:47:29;-1.90;99.90
10070;DHT22;5074;53.720;10.014;2022-12-11T02:50:00;-1.90;99.90
10070;DHT22;5074;53.720;10.014;2022-12-11T02:52:30;-2.00;99.90
10070;DHT22;5074;53.720;10.014;2022-12-11T02:55:00;-2.00;99.90
10070;DHT22;5074;53.720;10.014;2022-12-11T02:57:32;-2.00;99.90
10070;DHT22;5074;53.720;10.014;2022-12-11T03:00:07;-1.90;99.90
10070;DHT22;5074;53.720;10.014;2022-12-11T03:02:36;-1.90;99.90
10070;DHT22;5074;53.720;10.014;2022-12-11T03:05:05;-1.90;99.90
10070;DHT22;5074;53.720;10.014;2022-12-11T03:07:36;-1.90;99.90
10070;DHT22;5074;53.720;10.014;2022-12-11T03:10:06;-1.90;99.90
10070;DHT22;5074;53.720;10.014;2022-12-11T03:12:36;-1.90;99.90
10070;DHT22;5074;53.720;10.014;2022-12-11T03:15:09;-1.90;99.90
10070;DHT22;5074;53.720;10.014;2022-12-11T03:17:42;-1.90;99.90
10070;DHT22;5074;53.720;10.014;2022-12-11T03:20:18;-1.90;99.90
10070;DHT22;5074;53.720;10.014;2022-12-11T03:22:56;-2.00;99.90
10070;DHT22;5074;53.720;10.014;2022-12-11T03:25:31;-2.00;99.90
10070;DHT22;5074;53.720;10.014;2022-12-11T03:28:06;-2.00;99.90
10070;DHT22;5074;53.720;10.014;2022-12-11T03:30:39;-2.00;99.90
10070;DHT22;5074;53.720;10.014;2022-12-11T03:33:09;-2.00;99.90
10070;DHT22;5074;53.720;10.014;2022-12-11T03:35:41;-1.90;99.90
10070;DHT22;5074;53.720;10.014;2022-12-11T03:38:14;-1.90;99.90
10070;DHT22;5074;53.720;10.014;2022-12-11T03:40:46;-2.00;99.90
10070;DHT22;5074;53.720;10.014;2022-12-11T03:43:18;-2.00;99.90
10070;DHT22;5074;53.720;10.014;2022-12-11T03:45:49;-2.00;99.90
10070;DHT22;5074;53.720;10.014;2022-12-11T03:48:18;-2.00;99.90
10070;DHT22;5074;53.720;10.014;2022-12-11T03:50:48;-2.00;99.90
10070;DHT22;5074;53.720;10.014;2022-12-11T03:53:17;-2.00;99.90
10070;DHT22;5074;53.720;10.014;2022-12-11T03:55:46;-2.00;99.90
10070;DHT22;5074;53.720;10.014;2022-12-11T03:58:14;-2.00;99.90
10070;DHT22;5074;53.720;10.014;2022-12-11T04:00:42;-2.10;99.90
10070;DHT22;5074;53.720;10.014;2022-12-11T04:03:12;-2.10;99.90
10070;DHT22;5074;53.720;10.014;2022-12-11T04:05:41;-2.10;99.90
10070;DHT22;5074;53.720;10.014;2022-12-11T04:08:11;-2.10;99.90
10070;DHT22;5074;53.720;10.014;2022-12-11T04:10:40;-2.10;99.90
10070;DHT22;5074;53.720;10.014;2022-12-11T04:13:09;-2.10;99.90
10070;DHT22;5074;53.720;10.014;2022-12-11T04:15:37;-2.10;99.90
10070;DHT22;5074;53.720;10.014;2022-12-11T04:18:05;-2.10;99.90
10070;DHT22;5074;53.720;10.014;2022-12-11T04:20:53;-2.10;99.90
10070;DHT22;5074;53.720;10.014;2022-12-11T04:23:39;-2.10;99.90
10070;DHT22;5074;53.720;10.014;2022-12-11T04:26:25;-2.10;99.90
10070;DHT22;5074;53.720;10.014;2022-12-11T04:28:53;-2.00;99.90
10070;DHT22;5074;53.720;10.014;2022-12-11T04:31:21;-2.00;99.90
10070;DHT22;5074;53.720;10.014;2022-12-11T04:33:50;-2.10;99.90
10070;DHT22;5074;53.720;10.014;2022-12-11T04:36:20;-2.10;99.90
10070;DHT22;5074;53.720;10.014;2022-12-11T04:38:48;-2.10;99.90
10070;DHT22;5074;53.720;10.014;2022-12-11T04:41:16;-2.10;99.90
10070;DHT22;5074;53.720;10.014;2022-12-11T04:43:44;-2.10;99.90
10070;DHT22;5074;53.720;10.014;2022-12-11T04:46:13;-2.10;99.90
10070;DHT22;5074;53.720;10.014;2022-12-11T04:48:42;-2.20;99.90
10070;DHT22;5074;53.720;10.014;2022-12-11T04:51:12;-2.10;99.90
10070;DHT22;5074;53.720;10.014;2022-12-11T04:53:41;-2.10;99.90
10070;DHT22;5074;53.720;10.014;2022-12-11T04:56:12;-2.00;99.90
10070;DHT22;5074;53.720;10.014;2022-12-11T04:58:42;-2.00;99.90
10070;DHT22;5074;53.720;10.014;2022-12-11T05:01:11;-2.00;99.90
10070;DHT22;5074;53.720;10.014;2022-12-11T05:03:41;-2.00;99.90
10070;DHT22;5074;53.720;10.014;2022-12-11T05:06:10;-2.00;99.90
10070;DHT22;5074;53.720;10.014;2022-12-11T05:08:39;-2.00;99.90
10070;DHT22;5074;53.720;10.014;2022-12-11T05:11:10;-2.10;99.90
10070;DHT22;5074;53.720;10.014;2022-12-11T05:13:39;-2.10;99.90
10070;DHT22;5074;53.720;10.014;2022-12-11T05:16:08;-2.10;99.90
10070;DHT22;5074;53.720;10.014;2022-12-11T05:18:38;-2.00;99.90
10070;DHT22;5074;53.720;10.014;2022-12-11T05:21:07;-2.00;99.90
10070;DHT22;5074;53.720;10.014;2022-12-11T05:23:38;-2.00;99.90
10070;DHT22;5074;53.720;10.014;2022-12-11T05:26:09;-2.00;99.90
10070;DHT22;5074;53.720;10.014;2022-12-11T05:28:40;-2.00;99.90
10070;DHT22;5074;53.720;10.014;2022-12-11T05:31:10;-2.10;99.90
10070;DHT22;5074;53.720;10.014;2022-12-11T05:33:40;-2.10;99.90
10070;DHT22;5074;53.720;10.014;2022-12-11T05:36:09;-2.10;99.90
10070;DHT22;5074;53.720;10.014;2022-12-11T05:38:42;-2.10;99.90
10070;DHT22;5074;53.720;10.014;2022-12-11T05:41:13;-2.10;99.90
10070;DHT22;5074;53.720;10.014;2022-12-11T05:43:42;-2.10;99.90
10070;DHT22;5074;53.720;10.014;2022-12-11T05:46:12;-2.30;99.90
10070;DHT22;5074;53.720;10.014;2022-12-11T05:48:42;-2.40;99.90
10070;DHT22;5074;53.720;10.014;2022-12-11T05:51:11;-2.50;99.90
10070;DHT22;5074;53.720;10.014;2022-12-11T05:53:41;-2.60;99.90
10070;DHT22;5074;53.720;10.014;2022-12-11T05:56:10;-2.60;99.90
10070;DHT22;5074;53.720;10.014;2022-12-11T05:58:42;-2.60;99.90
10070;DHT22;5074;53.720;10.014;2022-12-11T06:01:12;-2.50;99.90
10070;DHT22;5074;53.720;10.014;2022-12-11T06:03:41;-2.60;99.90
10070;DHT22;5074;53.720;10.014;2022-12-11T06:06:09;-2.70;99.90
10070;DHT22;5074;53.720;10.014;2022-12-11T06:08:37;-2.60;99.90
10070;DHT22;5074;53.720;10.014;2022-12-11T06:11:05;-2.60;99.90
10070;DHT22;5074;53.720;10.014;2022-12-11T06:13:35;-2.60;99.90
10070;DHT22;5074;53.720;10.014;2022-12-11T06:16:04;-2.70;99.90
10070;DHT22;5074;53.720;10.014;2022-12-11T06:18:34;-2.80;99.90
10070;DHT22;5074;53.720;10.014;2022-12-11T06:21:09;-2.80;99.90
10070;DHT22;5074;53.720;10.014;2022-12-11T06:23:39;-3.00;99.90
10070;DHT22;5074;53.720;10.014;2022-12-11T06:26:08;-3.10;99.90
10070;DHT22;5074;53.720;10.014;2022-12-11T06:28:38;-3.10;99.90
10070;DHT22;5074;53.720;10.014;2022-12-11T06:31:06;-3.10;99.90
10070;DHT22;5074;53.720;10.014;2022-12-11T06:33:34;-3.20;99.90
10070;DHT22;5074;53.720;10.014;2022-12-11T06:36:03;-3.20;99.90
10070;DHT22;5074;53.720;10.014;2022-12-11T06:38:33;-3.20;99.90
10070;DHT22;5074;53.720;10.014;2022-12-11T06:41:01;-3.30;99.90
10070;DHT22;5074;53.720;10.014;2022-12-11T06:43:31;-3.40;99.90
10070;DHT22;5074;53.720;10.014;2022-12-11T06:46:03;-3.50;99.90
10070;DHT22;5074;53.720;10.014;2022-12-11T06:48:31;-3.40;99.90
10070;DHT22;5074;53.720;10.014;2022-12-11T06:51:03;-3.50;99.90
10070;DHT22;5074;53.720;10.014;2022-12-11T06:53:31;-3.50;99.90
10070;DHT22;5074;53.720;10.014;2022-12-11T06:56:00;-3.50;99.90
10070;DHT22;5074;53.720;10.014;2022-12-11T06:58:29;-3.60;99.90
10070;DHT22;5074;53.720;10.014;2022-12-11T07:00:57;-3.60;99.90
10070;DHT22;5074;53.720;10.014;2022-12-11T07:03:27;-3.60;99.90
10070;DHT22;5074;53.720;10.014;2022-12-11T07:05:58;-3.60;99.90
10070;DHT22;5074;53.720;10.014;2022-12-11T07:08:26;-3.70;99.90
10070;DHT22;5074;53.720;10.014;2022-12-11T07:11:00;-3.70;99.90
10070;DHT22;5074;53.720;10.014;2022-12-11T07:13:29;-3.70;99.90
10070;DHT22;5074;53.720;10.014;2022-12-11T07:15:57;-3.70;99.90
10070;DHT22;5074;53.720;10.014;2022-12-11T07:18:28;-3.70;99.90
10070;DHT22;5074;53.720;10.014;2022-12-11T07:20:57;-3.80;99.90
10070;DHT22;5074;53.720;10.014;2022-12-11T07:23:25;-3.90;99.90
10070;DHT22;5074;53.720;10.014;2022-12-11T07:25:54;-3.90;99.90
10070;DHT22;5074;53.720;10.014;2022-12-11T07:28:23;-3.90;99.90
10070;DHT22;5074;53.720;10.014;2022-12-11T07:30:51;-4.00;99.90
10070;DHT22;5074;53.720;10.014;2022-12-11T07:33:19;-4.00;99.90
10070;DHT22;5074;53.720;10.014;2022-12-11T07:35:49;-4.00;99.90
10070;DHT22;5074;53.720;10.014;2022-12-11T07:38:17;-4.00;99.90
10070;DHT22;5074;53.720;10.014;2022-12-11T07:40:45;-4.10;99.90
10070;DHT22;5074;53.720;10.014;2022-12-11T07:43:12;-4.10;99.90
10070;DHT22;5074;53.720;10.014;2022-12-11T07:45:40;-4.30;99.90
10070;DHT22;5074;53.720;10.014;2022-12-11T07:48:09;-4.40;99.90
10070;DHT22;5074;53.720;10.014;2022-12-11T07:50:38;-4.30;99.90
10070;DHT22;5074;53.720;10.014;2022-12-11T07:53:07;-4.30;99.90
10070;DHT22;5074;53.720;10.014;2022-12-11T07:55:35;-4.30;99.90
10070;DHT22;5074;53.720;10.014;2022-12-11T07:58:03;-4.40;99.90
10070;DHT22;5074;53.720;10.014;2022-12-11T08:00:31;-4.40;99.90
10070;DHT22;5074;53.720;10.014;2022-12-11T08:02:59;-4.40;99.90
10070;DHT22;5074;53.720;10.014;2022-12-11T08:05:27;-4.40;99.90
10070;DHT22;5074;53.720;10.014;2022-12-11T08:07:56;-4.40;99.90
10070;DHT22;5074;53.720;10.014;2022-12-11T08:10:25;-4.50;99.90
10070;DHT22;5074;53.720;10.014;2022-12-11T08:12:53;-4.40;99.90
10070;DHT22;5074;53.720;10.014;2022-12-11T08:15:21;-4.40;99.90
10070;DHT22;5074;53.720;10.014;2022-12-11T08:17:49;-4.30;99.90
10070;DHT22;5074;53.720;10.014;2022-12-11T08:20:17;-4.30;99.90
10070;DHT22;5074;53.720;10.014;2022-12-11T08:22:45;-4.20;99.90
10070;DHT22;5074;53.720;10.014;2022-12-11T08:25:13;-4.20;99.90
10070;DHT22;5074;53.720;10.014;2022-12-11T08:27:43;-4.10;99.90
10070;DHT22;5074;53.720;10.014;2022-12-11T08:30:11;-4.20;99.90
10070;DHT22;5074;53.720;10.014;2022-12-11T08:32:39;-4.10;99.90
10070;DHT22;5074;53.720;10.014;2022-12-11T08:35:08;-4.10;99.90
10070;DHT22;5074;53.720;10.014;2022-12-11T08:37:36;-4.10;99.90
10070;DHT22;5074;53.720;10.014;2022-12-11T08:40:06;-4.00;99.90
10070;DHT22;5074;53.720;10.014;2022-12-11T08:42:36;-4.00;99.90
10070;DHT22;5074;53.720;10.014;2022-12-11T08:45:06;-3.90;99.90
10070;DHT22;5074;53.720;10.014;2022-12-11T08:47:35;-3.80;99.90
10070;DHT22;5074;53.720;10.014;2022-12-11T08:50:04;-3.90;99.90
10070;DHT22;5074;53.720;10.014;2022-12-11T08:52:33;-3.80;99.90
10070;DHT22;5074;53.720;10.014;2022-12-11T08:55:01;-3.80;99.90
10070;DHT22;5074;53.720;10.014;2022-12-11T08:57:29;-3.70;99.90
10070;DHT22;5074;53.720;10.014;2022-12-11T08:59:57;-3.70;99.90
10070;DHT22;5074;53.720;10.014;2022-12-11T09:02:26;-3.60;99.90
10070;DHT22;5074;53.720;10.014;2022-12-11T09:04:55;-3.60;99.90
10070;DHT22;5074;53.720;10.014;2022-12-11T09:07:23;-3.50;99.90
10070;DHT22;5074;53.720;10.014;2022-12-11T09:09:53;-3.50;99.90
10070;DHT22;5074;53.720;10.014;2022-12-11T09:12:21;-3.50;99.90
10070;DHT22;5074;53.720;10.014;2022-12-11T09:14:49;-3.40;99.90
10070;DHT22;5074;53.720;10.014;2022-12-11T09:17:17;-3.40;99.90
10070;DHT22;5074;53.720;10.014;2022-12-11T09:19:46;-3.40;99.90
10070;DHT22;5074;53.720;10.014;2022-12-11T09:22:14;-3.30;99.90
10070;DHT22;5074;53.720;10.014;2022-12-11T09:24:42;-3.30;99.90
10070;DHT22;5074;53.720;10.014;2022-12-11T09:27:11;-3.30;99.90
10070;DHT22;5074;53.720;10.014;2022-12-11T09:29:39;-3.20;99.90
10070;DHT22;5074;53.720;10.014;2022-12-11T09:32:07;-3.30;99.90
10070;DHT22;5074;53.720;10.014;2022-12-11T09:34:35;-3.20;99.90
10070;DHT22;5074;53.720;10.014;2022-12-11T09:37:05;-3.20;99.90
10070;DHT22;5074;53.720;10.014;2022-12-11T09:39:33;-3.30;99.90
10070;DHT22;5074;53.720;10.014;2022-12-11T09:42:02;-3.20;99.90
10070;DHT22;5074;53.720;10.014;2022-12-11T09:44:41;-3.10;99.90
10070;DHT22;5074;53.720;10.014;2022-12-11T09:47:15;-3.10;99.90
10070;DHT22;5074;53.720;10.014;2022-12-11T09:49:48;-3.10;99.90
10070;DHT22;5074;53.720;10.014;2022-12-11T09:52:22;-3.00;99.90
10070;DHT22;5074;53.720;10.014;2022-12-11T09:54:58;-3.00;99.90
10070;DHT22;5074;53.720;10.014;2022-12-11T09:57:34;-3.00;99.90
10070;DHT22;5074;53.720;10.014;2022-12-11T10:00:14;-2.90;99.90
10070;DHT22;5074;53.720;10.014;2022-12-11T10:02:55;-2.80;99.90
10070;DHT22;5074;53.720;10.014;2022-12-11T10:05:33;-2.80;99.90
10070;DHT22;5074;53.720;10.014;2022-12-11T10:08:10;-2.70;99.90
10070;DHT22;5074;53.720;10.014;2022-12-11T10:10:46;-2.70;99.90
10070;DHT22;5074;53.720;10.014;2022-12-11T10:13:24;-2.60;99.90
10070;DHT22;5074;53.720;10.014;2022-12-11T10:16:03;-2.60;99.90
10070;DHT22;5074;53.720;10.014;2022-12-11T10:18:39;-2.60;99.90
10070;DHT22;5074;53.720;10.014;2022-12-11T10:21:07;-2.60;99.90
10070;DHT22;5074;53.720;10.014;2022-12-11T10:23:39;-2.50;99.90
10070;DHT22;5074;53.720;10.014;2022-12-11T10:26:11;-2.60;99.90
10070;DHT22;5074;53.720;10.014;2022-12-11T10:28:43;-2.50;99.90
10070;DHT22;5074;53.720;10.014;2022-12-11T10:31:13;-2.40;99.90
10070;DHT22;5074;53.720;10.014;2022-12-11T10:33:48;-2.40;99.90
10070;DHT22;5074;53.720;10.014;2022-12-11T10:36:25;-2.40;99.90
10070;DHT22;5074;53.720;10.014;2022-12-11T10:38:57;-2.40;99.90
10070;DHT22;5074;53.720;10.014;2022-12-11T10:41:30;-2.40;99.90
10070;DHT22;5074;53.720;10.014;2022-12-11T10:44:12;-2.40;99.90
10070;DHT22;5074;53.720;10.014;2022-12-11T10:46:43;-2.40;99.90
10070;DHT22;5074;53.720;10.014;2022-12-11T10:49:23;-2.30;99.90
10070;DHT22;5074;53.720;10.014;2022-12-11T10:51:52;-2.30;99.90
10070;DHT22;5074;53.720;10.014;2022-12-11T10:54:28;-2.30;99.90
10070;DHT22;5074;53.720;10.014;2022-12-11T10:57:00;-2.40;99.90
10070;DHT22;5074;53.720;10.014;2022-12-11T10:59:32;-2.30;99.90
10070;DHT22;5074;53.720;10.014;2022-12-11T11:02:04;-2.30;99.90
10070;DHT22;5074;53.720;10.014;2022-12-11T11:04:34;-2.20;99.90
10070;DHT22;5074;53.720;10.014;2022-12-11T11:07:10;-2.20;99.90
10070;DHT22;5074;53.720;10.014;2022-12-11T11:09:42;-2.20;99.90
10070;DHT22;5074;53.720;10.014;2022-12-11T11:12:17;-2.20;99.90
10070;DHT22;5074;53.720;10.014;2022-12-11T11:14:57;-2.10;99.90
10070;DHT22;5074;53.720;10.014;2022-12-11T11:17:26;-2.10;99.90
10070;DHT22;5074;53.720;10.014;2022-12-11T11:20:05;-2.10;99.90
10070;DHT22;5074;53.720;10.014;2022-12-11T11:22:41;-2.00;99.90
10070;DHT22;5074;53.720;10.014;2022-12-11T11:25:17;-2.00;99.90
10070;DHT22;5074;53.720;10.014;2022-12-11T11:27:48;-1.90;99.90
10070;DHT22;5074;53.720;10.014;2022-12-11T11:30:19;-1.90;99.90
10070;DHT22;5074;53.720;10.014;2022-12-11T11:32:49;-1.90;99.90
10070;DHT22;5074;53.720;10.014;2022-12-11T11:35:21;-1.90;99.90
10070;DHT22;5074;53.720;10.014;2022-12-11T11:37:59;-1.90;99.90
10070;DHT22;5074;53.720;10.014;2022-12-11T11:40:36;-1.80;99.90
10070;DHT22;5074;53.720;10.014;2022-12-11T11:43:12;-1.80;99.90
10070;DHT22;5074;53.720;10.014;2022-12-11T11:45:45;-1.80;99.90
10070;DHT22;5074;53.720;10.014;2022-12-11T11:48:26;-1.80;99.90
10070;DHT22;5074;53.720;10.014;2022-12-11T11:51:01;-1.80;99.90
10070;DHT22;5074;53.720;10.014;2022-12-11T11:53:39;-1.80;99.90
10070;DHT22;5074;53.720;10.014;2022-12-11T11:56:14;-1.90;99.90
10070;DHT22;5074;53.720;10.014;2022-12-11T11:58:51;-1.90;99.90
10070;DHT22;5074;53.720;10.014;2022-12-11T12:01:24;-1.80;99.90
10070;DHT22;5074;53.720;10.014;2022-12-11T12:03:53;-1.70;99.90
10070;DHT22;5074;53.720;10.014;2022-12-11T12:06:27;-1.70;99.90
10070;DHT22;5074;53.720;10.014;2022-12-11T12:09:04;-1.70;99.90
10070;DHT22;5074;53.720;10.014;2022-12-11T12:11:46;-1.70;99.90
10070;DHT22;5074;53.720;10.014;2022-12-11T12:14:20;-1.80;99.90
10070;DHT22;5074;53.720;10.014;2022-12-11T12:17:13;-1.70;99.90
10070;DHT22;5074;53.720;10.014;2022-12-11T12:19:50;-1.70;99.90
10070;DHT22;5074;53.720;10.014;2022-12-11T12:22:34;-1.60;99.90
10070;DHT22;5074;53.720;10.014;2022-12-11T12:25:16;-1.60;99.90
10070;DHT22;5074;53.720;10.014;2022-12-11T12:27:53;-1.50;99.90
10070;DHT22;5074;53.720;10.014;2022-12-11T12:30:26;-1.50;99.90
10070;DHT22;5074;53.720;10.014;2022-12-11T12:33:11;-1.60;99.90
10070;DHT22;5074;53.720;10.014;2022-12-11T12:35:49;-1.60;99.90
10070;DHT22;5074;53.720;10.014;2022-12-11T12:38:30;-1.60;99.90
10070;DHT22;5074;53.720;10.014;2022-12-11T12:41:11;-1.60;99.90
10070;DHT22;5074;53.720;10.014;2022-12-11T12:43:54;-1.50;99.90
10070;DHT22;5074;53.720;10.014;2022-12-11T12:46:33;-1.60;99.90
10070;DHT22;5074;53.720;10.014;2022-12-11T12:49:11;-1.50;99.90
10070;DHT22;5074;53.720;10.014;2022-12-11T12:51:42;-1.40;99.90
10070;DHT22;5074;53.720;10.014;2022-12-11T12:54:13;-1.30;99.90
10070;DHT22;5074;53.720;10.014;2022-12-11T12:56:44;-1.10;99.90
10070;DHT22;5074;53.720;10.014;2022-12-11T12:59:21;-1.00;99.90
10070;DHT22;5074;53.720;10.014;2022-12-11T13:01:51;-0.90;99.90
10070;DHT22;5074;53.720;10.014;2022-12-11T13:04:36;-0.80;99.90
10070;DHT22;5074;53.720;10.014;2022-12-11T13:07:22;-0.70;99.90
10070;DHT22;5074;53.720;10.014;2022-12-11T13:10:03;-0.70;99.90
10070;DHT22;5074;53.720;10.014;2022-12-11T13:12:39;-0.60;99.90
10070;DHT22;5074;53.720;10.014;2022-12-11T13:15:23;-0.60;99.90
10070;DHT22;5074;53.720;10.014;2022-12-11T13:21:00;-0.60;99.90
10070;DHT22;5074;53.720;10.014;2022-12-11T13:23:30;-0.50;99.90
10070;DHT22;5074;53.720;10.014;2022-12-11T13:26:00;-0.50;99.90
10070;DHT22;5074;53.720;10.014;2022-12-11T13:28:31;-0.50;99.90
10070;DHT22;5074;53.720;10.014;2022-12-11T13:31:29;-0.50;99.90
10070;DHT22;5074;53.720;10.014;2022-12-11T13:34:06;-0.50;99.90
10070;DHT22;5074;53.720;10.014;2022-12-11T13:36:45;-0.50;99.90
10070;DHT22;5074;53.720;10.014;2022-12-11T13:39:15;-0.60;99.90
10070;DHT22;5074;53.720;10.014;2022-12-11T13:41:46;-0.50;99.90
10070;DHT22;5074;53.720;10.014;2022-12-11T13:44:18;-0.50;99.90
10070;DHT22;5074;53.720;10.014;2022-12-11T13:46:51;-0.50;99.90
10070;DHT22;5074;53.720;10.014;2022-12-11T13:49:22;-0.60;99.90
10070;DHT22;5074;53.720;10.014;2022-12-11T13:51:53;-0.50;99.90
10070;DHT22;5074;53.720;10.014;2022-12-11T13:54:23;-0.50;99.90
10070;DHT22;5074;53.720;10.014;2022-12-11T13:56:53;-0.50;99.90
10070;DHT22;5074;53.720;10.014;2022-12-11T13:59:23;-0.50;99.90
10070;DHT22;5074;53.720;10.014;2022-12-11T14:01:55;-0.60;99.90
10070;DHT22;5074;53.720;10.014;2022-12-11T14:04:25;-0.50;99.90
10070;DHT22;5074;53.720;10.014;2022-12-11T14:06:56;-0.50;99.90
10070;DHT22;5074;53.720;10.014;2022-12-11T14:09:25;-0.50;99.90
10070;DHT22;5074;53.720;10.014;2022-12-11T14:11:54;-0.60;99.90
10070;DHT22;5074;53.720;10.014;2022-12-11T14:14:33;-0.60;99.90
10070;DHT22;5074;53.720;10.014;2022-12-11T14:17:10;-0.70;99.90
10070;DHT22;5074;53.720;10.014;2022-12-11T14:19:44;-0.80;99.90
10070;DHT22;5074;53.720;10.014;2022-12-11T14:22:17;-0.90;99.90
10070;DHT22;5074;53.720;10.014;2022-12-11T14:24:47;-1.00;99.90
10070;DHT22;5074;53.720;10.014;2022-12-11T14:27:17;-1.00;99.90
10070;DHT22;5074;53.720;10.014;2022-12-11T14:29:45;-1.00;99.90
10070;DHT22;5074;53.720;10.014;2022-12-11T14:32:17;-1.10;99.90
10070;DHT22;5074;53.720;10.014;2022-12-11T14:34:50;-1.10;99.90
10070;DHT22;5074;53.720;10.014;2022-12-11T14:37:20;-1.20;99.90
10070;DHT22;5074;53.720;10.014;2022-12-11T14:39:54;-1.20;99.90
10070;DHT22;5074;53.720;10.014;2022-12-11T14:42:27;-1.30;99.90
10070;DHT22;5074;53.720;10.014;2022-12-11T14:44:59;-1.30;99.90
10070;DHT22;5074;53.720;10.014;2022-12-11T14:47:33;-1.30;99.90
10070;DHT22;5074;53.720;10.014;2022-12-11T14:50:07;-1.30;99.90
10070;DHT22;5074;53.720;10.014;2022-12-11T14:52:41;-1.40;99.90
10070;DHT22;5074;53.720;10.014;2022-12-11T14:55:14;-1.40;99.90
10070;DHT22;5074;53.720;10.014;2022-12-11T14:57:44;-1.40;99.90
10070;DHT22;5074;53.720;10.014;2022-12-11T15:00:22;-1.40;99.90
10070;DHT22;5074;53.720;10.014;2022-12-11T15:02:58;-1.30;99.90
10070;DHT22;5074;53.720;10.014;2022-12-11T15:05:28;-1.40;99.90
10070;DHT22;5074;53.720;10.014;2022-12-11T15:08:16;-1.40;99.90
10070;DHT22;5074;53.720;10.014;2022-12-11T15:10:56;-1.30;99.90
10070;DHT22;5074;53.720;10.014;2022-12-11T15:13:28;-1.30;99.90
10070;DHT22;5074;53.720;10.014;2022-12-11T15:15:57;-1.20;99.90
10070;DHT22;5074;53.720;10.014;2022-12-11T15:18:28;-1.20;99.90
10070;DHT22;5074;53.720;10.014;2022-12-11T15:20:59;-1.30;99.90
10070;DHT22;5074;53.720;10.014;2022-12-11T15:23:30;-1.20;99.90
10070;DHT22;5074;53.720;10.014;2022-12-11T15:26:01;-1.30;99.90
10070;DHT22;5074;53.720;10.014;2022-12-11T15:28:31;-1.30;99.90
10070;DHT22;5074;53.720;10.014;2022-12-11T15:31:00;-1.30;99.90
10070;DHT22;5074;53.720;10.014;2022-12-11T15:33:32;-1.40;99.90
10070;DHT22;5074;53.720;10.014;2022-12-11T15:36:01;-1.40;99.90
10070;DHT22;5074;53.720;10.014;2022-12-11T15:38:32;-1.50;99.90
10070;DHT22;5074;53.720;10.014;2022-12-11T15:41:02;-1.40;99.90
10070;DHT22;5074;53.720;10.014;2022-12-11T15:43:33;-1.40;99.90
10070;DHT22;5074;53.720;10.014;2022-12-11T15:46:03;-1.40;99.90
10070;DHT22;5074;53.720;10.014;2022-12-11T15:48:34;-1.40;99.90
10070;DHT22;5074;53.720;10.014;2022-12-11T15:51:02;-1.40;99.90
10070;DHT22;5074;53.720;10.014;2022-12-11T15:53:30;-1.40;99.90
10070;DHT22;5074;53.720;10.014;2022-12-11T15:55:58;-1.50;99.90
10070;DHT22;5074;53.720;10.014;2022-12-11T15:58:26;-1.50;99.90
10070;DHT22;5074;53.720;10.014;2022-12-11T16:00:54;-1.50;99.90
10070;DHT22;5074;53.720;10.014;2022-12-11T16:03:23;-1.50;99.90